Time;durP1;ratioP1;P1;durP2;ratioP2;P2;SDS_P1;SDS_P2;PMS_P1;PMS_P2;Temp;Humidity;BMP_temperature;BMP_pressure;BME280_temperature;BME280_humidity;BME280_pressure;Samples;Min_cycle;Max_cycle;Signal;HPM_P1;HPM_P2
2022/01/17 00:00:56;;;;;;;;;31.50;29.25;;;;;7.91;76.75;102841.63;5062128;28;45616;-66
2022/01/17 00:03:24;;;;;;;;;39.75;30.50;;;;;7.94;76.73;102839.84;5037367;28;47523;-66
2022/01/17 00:05:53;;;;;;;;;38.75;32.00;;;;;7.92;76.53;102838.06;5055462;28;45519;-67
2022/01/17 00:08:19;;;;;;;;;31.75;29.50;;;;;7.89;76.95;102841.63;5054494;28;45456;-62
2022/01/17 00:10:46;;;;;;;;;30.00;29.75;;;;;7.91;76.45;102842.50;5054295;28;45439;-65
2022/01/17 00:13:23;;;;;;;;;32.50;29.75;;;;;7.95;76.70;102852.19;5055725;28;45481;-62
2022/01/17 00:15:55;;;;;;;;;29.00;27.50;;;;;8.01;76.54;102845.94;5037399;28;45348;-63
2022/01/17 00:18:52;;;;;;;;;28.75;27.00;;;;;8.03;76.53;102849.44;5055478;28;45776;-69
2022/01/17 00:21:06;;;;;;;;;36.00;30.25;;;;;8.03;76.02;102837.97;5041290;28;45659;-67
2022/01/17 00:23:32;;;;;;;;;28.50;28.50;;;;;8.00;76.60;102844.19;5053432;28;45468;-68
2022/01/17 00:25:58;;;;;;;;;33.00;26.00;;;;;7.99;76.56;102834.50;5055782;28;45214;-65
2022/01/17 00:28:23;;;;;;;;;30.75;27.50;;;;;7.99;76.35;102834.50;5053424;28;45438;-64
2022/01/17 00:30:49;;;;;;;;;32.75;26.75;;;;;8.02;76.32;102841.53;5055318;28;45561;-64
2022/01/17 00:33:14;;;;;;;;;37.25;32.25;;;;;7.96;76.33;102826.56;5055319;28;46059;-67
2022/01/17 00:35:40;;;;;;;;;33.75;29.50;;;;;8.00;76.55;102836.25;5055556;28;45525;-61
2022/01/17 00:38:06;;;;;;;;;36.75;30.50;;;;;7.94;76.35;102823.03;5055195;28;45600;-67
2022/01/17 00:40:31;;;;;;;;;39.00;32.50;;;;;7.96;76.82;102824.81;5055715;28;45331;-66
2022/01/17 00:42:57;;;;;;;;;40.75;29.25;;;;;7.97;76.89;102833.63;5035360;28;46180;-66
2022/01/17 00:45:27;;;;;;;;;31.00;28.00;;;;;8.02;76.24;102831.81;5055076;28;45318;-64
2022/01/17 00:47:55;;;;;;;;;34.25;27.25;;;;;8.05;76.70;102839.72;5054932;28;45291;-68
2022/01/17 00:50:22;;;;;;;;;29.00;27.00;;;;;8.06;76.57;102843.25;5037306;28;45418;-66
2022/01/17 00:52:48;;;;;;;;;32.00;27.25;;;;;8.05;76.15;102838.84;5054277;28;46022;-68
2022/01/17 00:55:13;;;;;;;;;36.00;33.75;;;;;8.10;76.27;102835.25;5055408;28;45448;-67
2022/01/17 00:57:38;;;;;;;;;33.00;33.00;;;;;8.11;76.07;102830.84;5055195;28;45299;-64
2022/01/17 01:00:05;;;;;;;;;38.00;33.75;;;;;8.13;76.00;102840.53;5055503;28;45605;-70
2022/01/17 01:02:31;;;;;;;;;32.25;31.00;;;;;8.12;75.86;102830.81;5035934;28;47454;-63
2022/01/17 01:04:56;;;;;;;;;36.50;31.75;;;;;8.13;75.89;102839.66;5043644;28;45550;-61
2022/01/17 01:07:21;;;;;;;;;33.25;31.00;;;;;8.13;76.10;102835.22;5058039;28;45410;-63
2022/01/17 01:09:59;;;;;;;;;34.00;30.00;;;;;8.15;76.04;102829.91;5058709;28;45575;-61
2022/01/17 01:12:25;;;;;;;;;30.50;26.50;;;;;8.16;76.41;102839.63;5057759;28;46295;-64
2022/01/17 01:14:50;;;;;;;;;27.25;25.25;;;;;8.17;75.94;102842.25;5058419;28;45292;-63
2022/01/17 01:17:31;;;;;;;;;30.50;26.00;;;;;8.19;75.69;102834.28;5058031;28;45426;-64
2022/01/17 01:20:11;;;;;;;;;35.50;28.25;;;;;8.22;75.38;102831.63;5058417;28;45225;-68
2022/01/17 01:28:05;;;;;;;;;39.25;29.50;;;;;8.26;75.39;102834.19;5057231;28;45473;-65
2022/01/17 01:30:32;;;;;;;;;33.25;30.75;;;;;8.24;75.55;102828.03;5058323;28;45593;-64
2022/01/17 01:32:59;;;;;;;;;36.75;28.00;;;;;8.25;75.42;102835.09;5057261;28;47279;-65
2022/01/17 01:35:27;;;;;;;;;32.75;29.75;;;;;8.23;75.92;102826.28;5056880;28;45313;-65
2022/01/17 01:37:53;;;;;;;;;34.50;27.25;;;;;8.23;76.08;102828.06;5057454;28;45437;-63
2022/01/17 01:40:20;;;;;;;;;31.75;28.00;;;;;8.25;76.29;102829.81;5058370;28;45542;-70
2022/01/17 01:42:48;;;;;;;;;37.00;31.50;;;;;8.25;75.82;102824.50;5057619;28;45374;-67
2022/01/17 01:45:14;;;;;;;;;33.00;26.25;;;;;8.27;75.76;102832.44;5036713;28;45388;-67
2022/01/17 01:47:41;;;;;;;;;34.50;31.25;;;;;8.26;76.69;102835.97;5020045;28;45296;-65
2022/01/17 01:50:10;;;;;;;;;33.75;29.50;;;;;8.25;75.90;102834.22;5056509;28;45471;-65
2022/01/17 01:52:36;;;;;;;;;28.50;25.50;;;;;8.27;75.76;102845.69;5056426;28;47560;-68
2022/01/17 01:55:02;;;;;;;;;36.00;27.25;;;;;8.27;76.27;102846.56;5056673;28;45401;-64
2022/01/17 01:57:27;;;;;;;;;29.50;22.75;;;;;8.27;76.01;102849.22;5057911;28;45344;-66
2022/01/17 01:59:53;;;;;;;;;42.00;34.00;;;;;8.23;76.63;102852.81;5057707;28;45431;-63
2022/01/17 02:02:19;;;;;;;;;39.25;33.00;;;;;8.18;76.72;102859.91;5039836;28;46067;-65
2022/01/17 02:04:44;;;;;;;;;39.25;33.50;;;;;8.17;76.89;102851.97;5057691;28;45431;-65
2022/01/17 02:07:11;;;;;;;;;37.75;32.25;;;;;8.14;77.09;102847.59;5056291;28;45320;-63
2022/01/17 02:09:37;;;;;;;;;26.50;21.50;;;;;8.20;76.44;102863.44;5057444;28;45228;-69
2022/01/17 02:12:03;;;;;;;;;33.50;32.25;;;;;8.16;76.45;102856.38;5038044;28;46724;-69
2022/01/17 02:14:29;;;;;;;;;32.75;28.75;;;;;8.16;77.16;102856.38;5056588;28;45452;-65
2022/01/17 02:16:54;;;;;;;;;35.25;33.25;;;;;8.07;76.97;102861.78;5057579;28;45226;-62
2022/01/17 02:19:24;;;;;;;;;44.50;36.00;;;;;8.03;77.50;102853.88;5039508;28;45292;-66
2022/01/17 02:21:50;;;;;;;;;37.75;28.25;;;;;7.99;77.29;102851.25;5055229;28;47321;-67
2022/01/17 02:24:18;;;;;;;;;46.50;36.00;;;;;8.05;77.03;102842.38;5056876;28;45346;-67
2022/01/17 02:26:45;;;;;;;;;34.00;33.00;;;;;8.10;77.16;102839.69;5057188;28;45300;-66
2022/01/17 02:29:11;;;;;;;;;41.00;32.00;;;;;8.16;76.52;102845.78;5055735;28;45588;-64
2022/01/17 02:31:37;;;;;;;;;38.00;35.00;;;;;8.17;76.47;102847.53;5056752;28;45891;-67
2022/01/17 02:34:03;;;;;;;;;37.75;31.75;;;;;8.16;76.79;102840.50;5056375;28;45386;-63
2022/01/17 02:36:30;;;;;;;;;39.50;32.50;;;;;8.12;76.41;102833.47;5057086;28;45450;-62
2022/01/17 02:38:55;;;;;;;;;34.25;31.00;;;;;8.14;76.28;102839.63;5056490;28;45323;-67
2022/01/17 02:41:21;;;;;;;;;40.50;33.75;;;;;8.15;76.79;102838.72;5038253;28;45349;-64
2022/01/17 02:43:47;;;;;;;;;40.50;33.75;;;;;8.17;76.63;102836.06;5038438;28;46011;-63
2022/01/17 02:48:40;;;;;;;;;49.00;36.00;;;;;8.20;76.54;102828.97;5057129;28;45514;-64
2022/01/17 02:51:07;;;;;;;;;34.75;25.00;;;;;8.19;76.52;102821.91;5055929;28;46273;-67
2022/01/17 02:53:33;;;;;;;;;39.50;36.50;;;;;8.09;76.35;102817.59;5056518;28;45500;-69
2022/01/17 02:56:04;;;;;;;;;41.25;32.00;;;;;8.14;77.00;102830.81;5056090;28;45423;-67
2022/01/17 02:58:34;;;;;;;;;35.75;33.75;;;;;8.17;77.04;102830.75;5055267;28;45429;-65
2022/01/17 03:01:03;;;;;;;;;33.25;30.25;;;;;8.18;77.02;102836.03;5055413;28;45486;-65
2022/01/17 03:03:30;;;;;;;;;34.75;31.25;;;;;8.20;76.73;102841.31;5056374;28;45441;-66
2022/01/17 03:05:57;;;;;;;;;37.00;33.00;;;;;8.19;76.91;102845.75;5056966;28;45335;-65
2022/01/17 03:08:25;;;;;;;;;37.75;32.75;;;;;8.14;77.32;102850.22;5057056;28;45349;-70
2022/01/17 03:10:52;;;;;;;;;35.50;32.75;;;;;8.15;77.30;102848.47;5056633;28;45395;-69
2022/01/17 03:13:20;;;;;;;;;38.75;37.25;;;;;8.15;76.84;102851.09;5054628;28;45233;-65
2022/01/17 03:15:59;;;;;;;;;40.00;33.00;;;;;8.13;77.18;102859.06;5026057;28;45533;-68
2022/01/17 03:18:28;;;;;;;;;36.00;34.00;;;;;8.04;76.21;102843.25;5056397;28;45399;-65
2022/01/17 03:20:54;;;;;;;;;29.25;26.75;;;;;8.05;77.55;102852.09;5056604;28;46697;-62
2022/01/17 03:23:20;;;;;;;;;36.50;33.75;;;;;8.05;76.73;102868.84;5055767;28;45316;-68
2022/01/17 03:25:45;;;;;;;;;37.50;30.25;;;;;8.06;77.18;102860.00;5056056;28;45367;-66
2022/01/17 03:28:11;;;;;;;;;37.00;28.75;;;;;8.05;77.77;102870.63;5056444;28;45592;-65
2022/01/17 03:30:36;;;;;;;;;38.00;34.50;;;;;7.99;77.01;102869.81;5054712;28;45643;-69
2022/01/17 03:33:05;;;;;;;;;33.75;30.50;;;;;7.95;77.10;102864.56;5055815;28;45550;-65
2022/01/17 03:35:30;;;;;;;;;47.00;38.00;;;;;7.98;77.07;102873.34;5030836;28;45292;-60
2022/01/17 03:37:56;;;;;;;;;40.75;36.50;;;;;8.02;77.29;102882.16;5036441;28;45414;-64
2022/01/17 03:40:21;;;;;;;;;36.00;33.75;;;;;7.98;77.21;102878.66;5052900;28;45419;-66
2022/01/17 03:42:47;;;;;;;;;47.00;41.25;;;;;8.02;77.22;102873.31;5056099;28;45537;-63
2022/01/17 03:45:13;;;;;;;;;36.75;33.50;;;;;8.09;77.27;102869.72;5020416;28;45502;-64
2022/01/17 03:47:42;;;;;;;;;46.25;38.00;;;;;8.02;77.67;102870.66;5056226;28;45489;-66
2022/01/17 03:50:17;;;;;;;;;48.75;38.75;;;;;8.05;76.99;102871.50;5037499;28;47317;-67
2022/01/17 03:52:43;;;;;;;;;46.25;39.00;;;;;8.04;77.20;102869.75;5055417;28;45569;-61
2022/01/17 03:55:12;;;;;;;;;49.50;42.25;;;;;8.12;76.80;102889.13;5055960;28;45336;-60
2022/01/17 03:57:38;;;;;;;;;50.00;40.50;;;;;8.02;76.93;102884.78;5055683;28;45392;-63
2022/01/17 04:00:08;;;;;;;;;44.75;35.50;;;;;8.01;77.05;102898.94;5037277;28;46702;-65
2022/01/17 04:02:34;;;;;;;;;38.50;32.25;;;;;8.02;76.87;102894.53;5046207;28;46701;-63
2022/01/17 04:04:59;;;;;;;;;41.25;33.25;;;;;8.04;77.08;102898.91;5036754;28;45494;-67
2022/01/17 04:07:25;;;;;;;;;39.75;37.25;;;;;8.06;76.69;102894.47;5056359;28;45316;-69
2022/01/17 04:09:51;;;;;;;;;46.00;37.00;;;;;8.08;76.36;102902.44;5055408;28;45394;-68
2022/01/17 04:12:16;;;;;;;;;34.50;30.50;;;;;8.11;75.83;102897.97;5055295;28;45270;-65
2022/01/17 04:14:41;;;;;;;;;36.75;35.25;;;;;8.09;76.82;102891.81;5055416;28;45239;-69
2022/01/17 04:17:07;;;;;;;;;42.75;35.75;;;;;8.15;75.91;102907.66;5056042;28;45204;-67
2022/01/17 04:19:33;;;;;;;;;34.25;25.50;;;;;8.13;75.69;102906.78;5035392;28;45737;-67
2022/01/17 04:21:59;;;;;;;;;24.75;21.50;;;;;8.11;75.10;102905.94;5055691;28;45361;-67
2022/01/17 04:24:25;;;;;;;;;35.00;29.00;;;;;8.07;75.47;102908.59;5037655;28;45450;-64
2022/01/17 04:26:51;;;;;;;;;36.50;33.75;;;;;8.06;75.08;102923.63;5055324;28;45854;-59
2022/01/17 04:29:17;;;;;;;;;29.00;26.00;;;;;8.01;75.60;102909.53;5023418;28;47497;-65
2022/01/17 04:31:42;;;;;;;;;25.50;21.50;;;;;8.03;74.80;102906.88;5047783;28;45454;-63
2022/01/17 04:34:08;;;;;;;;;26.75;22.00;;;;;8.04;74.15;102898.03;5056091;28;45457;-67
2022/01/17 04:36:33;;;;;;;;;26.00;22.25;;;;;7.94;73.90;102889.28;5058308;28;45509;-69
2022/01/17 04:38:59;;;;;;;;;24.00;23.25;;;;;7.91;73.61;102894.59;5058988;28;45403;-64
2022/01/17 04:41:36;;;;;;;;;31.25;25.75;;;;;8.02;74.45;102895.41;5058857;28;45470;-67
2022/01/17 04:45:07;;;;;;;;;25.00;23.25;;;;;8.07;74.49;102893.56;5020835;28;45200;-67
2022/01/17 04:46:47;;;;;;;;;32.00;25.25;;;;;8.09;74.74;102898.88;5053305;28;45464;-69
2022/01/17 04:49:13;;;;;;;;;29.25;27.50;;;;;8.05;74.77;102902.44;5058623;28;46128;-69
2022/01/17 04:51:38;;;;;;;;;35.25;31.25;;;;;8.04;74.10;102901.56;5056561;28;45554;-63
2022/01/17 04:56:56;;;;;;;;;39.25;28.00;;;;;8.05;74.59;102921.00;5035257;28;45305;-65
2022/01/17 04:59:21;;;;;;;;;37.75;27.00;;;;;8.05;75.04;102921.88;5058415;28;45370;-66
2022/01/17 05:01:47;;;;;;;;;30.00;24.50;;;;;8.06;74.70;102914.78;5050110;28;45269;-68
2022/01/17 05:04:12;;;;;;;;;31.00;30.00;;;;;8.06;74.66;102897.13;5058658;28;45414;-66
2022/01/17 05:06:38;;;;;;;;;34.25;27.25;;;;;8.07;74.60;102898.88;5057847;28;45228;-62
2022/01/17 05:09:04;;;;;;;;;34.75;30.00;;;;;8.08;75.06;102900.66;5039294;28;46099;-66
2022/01/17 05:11:31;;;;;;;;;36.25;28.50;;;;;8.06;75.37;102905.06;5058054;28;45478;-67
2022/01/17 05:13:57;;;;;;;;;31.75;30.00;;;;;8.06;75.37;102913.03;5040794;28;45460;-62
2022/01/17 05:16:31;;;;;;;;;42.25;33.25;;;;;8.03;74.88;102918.34;5058269;28;45563;-64
2022/01/17 05:21:41;;;;;;;;;35.00;27.00;;;;;7.97;74.31;102935.19;5057816;28;45480;-67
2022/01/17 05:24:06;;;;;;;;;34.75;26.50;;;;;7.92;74.54;102922.84;5057797;28;45427;-65
2022/01/17 05:26:32;;;;;;;;;28.25;24.00;;;;;7.95;74.69;102926.38;5057322;28;45569;-64
2022/01/17 05:28:57;;;;;;;;;33.50;27.25;;;;;7.97;74.47;102918.41;5057525;28;46451;-66
2022/01/17 05:31:22;;;;;;;;;25.75;20.75;;;;;7.96;74.56;102930.78;5057695;28;45431;-64
2022/01/17 05:33:48;;;;;;;;;31.75;27.25;;;;;8.00;74.47;102934.28;5058151;28;45523;-68
2022/01/17 05:36:13;;;;;;;;;28.50;28.25;;;;;8.00;74.29;102928.97;5057681;28;45397;-65
2022/01/17 05:38:39;;;;;;;;;30.00;25.50;;;;;8.00;74.32;102936.94;5057990;28;45431;-66
2022/01/17 05:41:04;;;;;;;;;25.50;22.75;;;;;7.97;74.25;102926.38;5056501;28;45426;-66
2022/01/17 05:43:29;;;;;;;;;22.00;12.75;;;;;7.96;74.89;102935.22;5058225;28;45267;-62
2022/01/17 05:45:55;;;;;;;;;32.75;30.75;;;;;7.99;74.64;102943.13;5055204;28;45545;-61
2022/01/17 05:48:20;;;;;;;;;30.00;26.50;;;;;8.02;74.33;102944.88;5057797;28;45431;-63
2022/01/17 05:50:45;;;;;;;;;31.00;27.75;;;;;7.97;74.43;102942.25;5057068;28;45373;-63
2022/01/17 05:53:11;;;;;;;;;36.75;31.25;;;;;8.01;74.92;102941.34;5058017;28;45346;-71
2022/01/17 05:55:37;;;;;;;;;34.25;31.25;;;;;8.03;74.76;102949.28;5029783;28;45284;-70
2022/01/17 05:58:03;;;;;;;;;33.25;26.50;;;;;8.00;74.90;102955.47;5049262;28;46048;-63
2022/01/17 06:00:28;;;;;;;;;27.50;24.00;;;;;7.97;75.04;102955.50;5056032;28;45443;-70
2022/01/17 06:02:54;;;;;;;;;29.75;27.25;;;;;7.92;75.09;102957.28;5019949;28;45457;-67
2022/01/17 06:05:19;;;;;;;;;30.50;30.00;;;;;7.95;75.22;102949.34;5044487;28;45246;-70
2022/01/17 06:07:45;;;;;;;;;27.25;26.25;;;;;7.92;74.87;102946.69;5055569;28;45470;-63
2022/01/17 06:10:11;;;;;;;;;42.25;34.50;;;;;7.84;75.90;102941.47;5058059;28;45531;-64
2022/01/17 06:12:36;;;;;;;;;32.00;29.50;;;;;7.91;75.18;102947.59;5061157;28;45453;-63
2022/01/17 06:15:03;;;;;;;;;32.50;28.75;;;;;7.93;75.25;102948.47;5058077;28;45529;-65
2022/01/17 06:17:29;;;;;;;;;29.00;27.50;;;;;7.92;75.13;102947.56;5057781;28;45438;-63
2022/01/17 06:19:54;;;;;;;;;30.50;30.50;;;;;7.93;74.83;102953.75;5056815;28;45479;-65
2022/01/17 06:22:20;;;;;;;;;32.75;31.50;;;;;7.93;74.85;102948.47;5053422;28;45410;-69
2022/01/17 06:24:45;;;;;;;;;28.50;18.75;;;;;7.91;75.21;102940.53;5057974;28;45350;-64
2022/01/17 06:27:11;;;;;;;;;39.75;33.50;;;;;7.92;74.45;102952.88;5056641;28;45447;-69
2022/01/17 06:29:36;;;;;;;;;32.75;30.00;;;;;7.79;75.21;102956.50;5056650;28;45309;-70
2022/01/17 06:32:04;;;;;;;;;29.25;25.50;;;;;7.66;75.79;102970.72;5057971;28;45398;-62
2022/01/17 06:34:29;;;;;;;;;28.25;27.00;;;;;7.68;75.88;102980.44;5057853;28;45323;-69
2022/01/17 06:36:55;;;;;;;;;37.00;28.50;;;;;7.68;75.94;102984.81;5055436;28;46560;-69
2022/01/17 06:39:20;;;;;;;;;35.00;28.25;;;;;7.50;76.16;102975.22;5039039;28;45269;-63
2022/01/17 06:41:46;;;;;;;;;30.75;29.00;;;;;7.53;76.49;102995.50;5038702;28;45422;-65
2022/01/17 06:44:11;;;;;;;;;37.50;33.25;;;;;7.50;76.35;103000.81;5057667;28;45450;-66
2022/01/17 06:46:40;;;;;;;;;33.75;32.25;;;;;7.46;76.14;103010.56;5053611;28;45489;-69
2022/01/17 06:49:05;;;;;;;;;40.00;34.25;;;;;7.45;76.63;103026.47;5038143;28;45494;-65
2022/01/17 06:51:31;;;;;;;;;34.50;31.50;;;;;7.42;76.58;103013.22;5037855;28;45399;-64
2022/01/17 06:53:56;;;;;;;;;38.00;32.00;;;;;7.42;76.63;103014.09;5055591;28;45601;-68
2022/01/17 06:56:22;;;;;;;;;42.75;35.75;;;;;7.51;76.29;103014.06;5056680;28;46135;-68
2022/01/17 06:58:47;;;;;;;;;38.25;34.75;;;;;7.56;76.34;103007.00;5056023;28;45228;-67
2022/01/17 07:01:14;;;;;;;;;39.00;30.25;;;;;7.58;75.85;102994.63;5054225;28;45696;-63
2022/01/17 07:03:40;;;;;;;;;45.50;34.00;;;;;7.58;75.70;103001.69;5038329;28;45656;-66
2022/01/17 07:06:06;;;;;;;;;38.50;31.25;;;;;7.53;76.09;102995.50;5037545;28;46197;-66
2022/01/17 07:08:32;;;;;;;;;30.50;27.75;;;;;7.60;75.59;103014.03;5054805;28;45453;-65
2022/01/17 07:10:57;;;;;;;;;32.00;29.50;;;;;7.62;75.36;103001.66;5055635;28;45500;-65
2022/01/17 07:13:23;;;;;;;;;32.25;29.00;;;;;7.64;75.57;103026.34;5056019;28;45418;-65
2022/01/17 07:15:48;;;;;;;;;41.50;39.00;;;;;7.64;75.33;103033.41;5055639;28;46099;-66
2022/01/17 07:18:14;;;;;;;;;26.00;24.25;;;;;7.61;75.65;103046.69;5056008;28;45427;-60
2022/01/17 07:20:40;;;;;;;;;31.75;30.75;;;;;7.60;75.52;103068.75;5057070;28;45272;-68
2022/01/17 07:23:06;;;;;;;;;39.50;31.75;;;;;7.63;75.40;103077.56;5056333;28;45339;-63
2022/01/17 07:25:32;;;;;;;;;36.25;32.25;;;;;7.62;75.56;103080.22;5054126;28;45382;-64
2022/01/17 07:27:57;;;;;;;;;41.75;31.00;;;;;7.61;75.61;103086.41;5051340;28;45680;-68
2022/01/17 07:30:23;;;;;;;;;41.50;39.00;;;;;7.52;75.48;103046.72;5030417;28;45566;-65
2022/01/17 07:32:49;;;;;;;;;42.50;32.50;;;;;7.60;75.22;103050.22;5055292;28;45261;-64
2022/01/17 07:35:14;;;;;;;;;37.25;29.50;;;;;7.60;74.90;103050.22;5031874;28;47816;-63
2022/01/17 07:37:40;;;;;;;;;39.50;33.50;;;;;7.62;75.26;103049.31;5055503;28;45396;-64
2022/01/17 07:40:07;;;;;;;;;41.00;29.75;;;;;7.64;74.80;103044.88;5054868;28;45460;-69
2022/01/17 07:42:33;;;;;;;;;36.75;32.75;;;;;7.62;75.48;103044.03;5049128;28;45565;-65
2022/01/17 07:45:08;;;;;;;;;30.75;28.00;;;;;7.58;75.13;103038.75;5034131;28;47025;-66
2022/01/17 07:47:44;;;;;;;;;36.50;33.00;;;;;7.59;75.47;103044.03;5054918;28;45521;-63
2022/01/17 07:50:16;;;;;;;;;42.75;32.00;;;;;7.63;75.03;103044.91;5034095;28;45605;-65
2022/01/17 07:52:42;;;;;;;;;34.75;24.75;;;;;7.58;75.49;103041.41;5051406;28;45587;-65
2022/01/17 07:55:09;;;;;;;;;27.50;21.00;;;;;7.63;74.97;103066.97;5052579;28;46444;-66
2022/01/17 07:57:36;;;;;;;;;31.25;28.75;;;;;7.63;74.75;103061.66;5051230;28;45466;-70
2022/01/17 08:00:05;;;;;;;;;43.50;38.00;;;;;7.60;75.44;103055.50;5048838;28;45631;-65
2022/01/17 08:02:32;;;;;;;;;46.00;34.75;;;;;7.67;75.18;103073.13;5053185;28;45648;-70
2022/01/17 08:04:57;;;;;;;;;35.75;30.50;;;;;7.66;74.94;103063.41;5051570;28;46210;-65
2022/01/17 08:07:22;;;;;;;;;42.50;37.75;;;;;7.68;74.59;103070.50;5051621;28;45481;-63
2022/01/17 08:09:48;;;;;;;;;51.00;37.00;;;;;7.65;74.86;103065.19;5052201;28;45594;-62
2022/01/17 08:12:13;;;;;;;;;36.50;30.75;;;;;7.62;75.14;103062.56;5036035;28;45466;-66
2022/01/17 08:14:40;;;;;;;;;32.25;30.50;;;;;7.63;75.21;103058.13;5057911;28;46238;-62
2022/01/17 08:17:06;;;;;;;;;44.00;33.75;;;;;7.68;74.69;103065.19;5036354;28;45437;-65
2022/01/17 08:19:32;;;;;;;;;42.75;35.25;;;;;7.66;74.70;103074.00;5036181;28;45407;-67
2022/01/17 08:21:58;;;;;;;;;30.00;30.00;;;;;7.62;74.90;103078.44;5055589;28;45182;-67
2022/01/17 08:24:24;;;;;;;;;38.25;30.25;;;;;7.67;74.59;103083.72;5053540;28;45425;-68
2022/01/17 08:26:50;;;;;;;;;35.50;28.50;;;;;7.72;74.75;103081.06;5034303;28;45901;-66
2022/01/17 08:29:16;;;;;;;;;37.00;32.25;;;;;7.73;74.42;103083.69;5034492;28;46340;-63
2022/01/17 08:31:46;;;;;;;;;33.50;33.00;;;;;7.77;74.14;103076.63;5052530;28;45606;-66
2022/01/17 08:34:12;;;;;;;;;36.25;31.50;;;;;7.78;74.26;103078.38;5035207;28;46608;-63
2022/01/17 08:36:37;;;;;;;;;30.00;27.00;;;;;7.81;74.33;103087.22;5036167;28;45268;-64
2022/01/17 08:39:03;;;;;;;;;40.00;33.50;;;;;7.81;73.95;103087.22;5054658;28;47008;-63
2022/01/17 08:41:28;;;;;;;;;38.00;34.50;;;;;7.83;73.62;103097.78;5036627;28;45593;-63
2022/01/17 08:43:54;;;;;;;;;33.00;33.00;;;;;7.88;74.21;103101.28;5054446;28;45975;-64
2022/01/17 08:46:19;;;;;;;;;38.50;32.00;;;;;7.93;74.15;103108.31;5054768;28;45379;-66
2022/01/17 08:48:45;;;;;;;;;34.75;32.00;;;;;7.98;73.30;103098.59;5054633;28;45284;-68
2022/01/17 08:51:11;;;;;;;;;30.25;27.50;;;;;8.00;73.45;103106.53;5055256;28;45158;-67
2022/01/17 08:53:36;;;;;;;;;35.25;28.75;;;;;8.04;73.26;103104.75;5054878;28;46141;-66
2022/01/17 08:56:03;;;;;;;;;31.00;28.75;;;;;8.11;73.24;103114.44;5054153;28;45415;-65
2022/01/17 08:58:28;;;;;;;;;30.25;28.25;;;;;8.19;72.65;103108.19;5036755;28;45575;-65
2022/01/17 09:00:56;;;;;;;;;38.75;30.00;;;;;8.27;73.09;103103.72;5054067;28;45384;-65
2022/01/17 09:03:23;;;;;;;;;36.00;32.75;;;;;8.32;72.17;103108.09;5054474;28;46156;-63
2022/01/17 09:05:48;;;;;;;;;25.75;24.50;;;;;8.29;72.32;103093.97;5036431;28;46410;-65
2022/01/17 09:08:14;;;;;;;;;41.75;36.00;;;;;8.36;72.86;103102.81;5053983;28;45265;-65
2022/01/17 09:10:39;;;;;;;;;36.50;30.25;;;;;8.39;71.93;103110.75;5054800;28;45219;-64
2022/01/17 09:13:07;;;;;;;;;38.00;31.25;;;;;8.39;71.56;103099.25;5053587;28;45471;-65
2022/01/17 09:15:32;;;;;;;;;41.25;38.50;;;;;8.52;72.17;103112.41;5054692;28;45443;-66
2022/01/17 09:17:58;;;;;;;;;38.75;35.00;;;;;8.58;71.62;103124.75;5054525;28;45522;-67
2022/01/17 09:20:24;;;;;;;;;35.50;28.25;;;;;8.58;71.07;103124.75;5056232;28;45401;-64
2022/01/17 09:22:49;;;;;;;;;31.75;30.75;;;;;8.59;71.28;103145.06;5057769;28;45994;-66
2022/01/17 09:25:15;;;;;;;;;38.75;33.50;;;;;8.60;70.63;103144.22;5058674;28;45588;-62
2022/01/17 09:27:42;;;;;;;;;42.00;35.25;;;;;8.63;71.73;103157.44;5057118;28;45532;-65
2022/01/17 09:30:11;;;;;;;;;54.75;35.00;;;;;8.67;71.13;103166.25;5058338;28;45230;-66
2022/01/17 09:32:36;;;;;;;;;35.00;30.00;;;;;8.66;70.81;103165.38;5056823;28;46109;-67
2022/01/17 09:35:03;;;;;;;;;41.00;34.50;;;;;8.72;71.26;103164.44;5056399;28;45956;-66
2022/01/17 09:37:28;;;;;;;;;40.25;31.00;;;;;8.71;71.01;103167.97;5056373;28;45599;-62
2022/01/17 09:39:54;;;;;;;;;36.25;32.50;;;;;8.77;70.88;103178.56;5052356;28;45560;-64
2022/01/17 09:42:19;;;;;;;;;34.25;27.50;;;;;8.78;70.50;103173.25;5038928;28;47234;-63
2022/01/17 09:44:44;;;;;;;;;32.00;30.50;;;;;8.76;70.25;103148.50;5056583;28;45456;-63
2022/01/17 09:47:12;;;;;;;;;29.25;24.25;;;;;8.79;69.85;103151.13;5057902;28;45319;-65
2022/01/17 09:49:43;;;;;;;;;30.00;30.00;;;;;8.87;70.15;103159.03;5057924;28;45231;-64
2022/01/17 09:54:59;;;;;;;;;34.75;30.75;;;;;8.94;70.22;103165.16;5057095;28;45425;-65
2022/01/17 09:57:27;;;;;;;;;34.50;28.75;;;;;8.93;70.93;103180.19;5055100;28;45529;-67
2022/01/17 09:59:53;;;;;;;;;42.00;36.50;;;;;8.94;70.29;103183.72;5056277;28;45481;-69
2022/01/17 10:02:19;;;;;;;;;39.00;28.50;;;;;8.93;69.86;103190.81;5039207;28;46778;-67
2022/01/17 10:04:45;;;;;;;;;38.00;27.25;;;;;8.86;69.98;103195.31;5057225;28;45481;-66
2022/01/17 10:07:10;;;;;;;;;38.75;35.50;;;;;8.88;69.36;103197.06;5039894;28;45489;-64
2022/01/17 10:09:36;;;;;;;;;37.00;30.75;;;;;8.99;70.25;103200.53;5057927;28;45571;-68
2022/01/17 10:12:11;;;;;;;;;37.50;28.25;;;;;9.01;69.56;103201.38;5054538;28;45739;-68
2022/01/17 10:14:39;;;;;;;;;32.75;29.25;;;;;9.01;70.49;103196.06;5049914;28;46942;-68
2022/01/17 10:17:11;;;;;;;;;36.25;31.50;;;;;9.05;69.54;103200.47;5038469;28;45270;-68
2022/01/17 10:19:38;;;;;;;;;35.75;32.00;;;;;9.06;69.51;103215.50;5030674;28;45588;-71
2022/01/17 10:22:11;;;;;;;;;41.50;32.00;;;;;9.06;69.63;103208.41;5039406;28;46241;-66
2022/01/17 10:35:12;;;;;;;;;43.75;33.00;;;;;9.11;69.19;103211.94;5053628;28;45415;-67
2022/01/17 10:37:39;;;;;;;;;48.50;36.25;;;;;9.06;69.02;103202.22;5057243;28;45384;-65
2022/01/17 10:40:06;;;;;;;;;41.25;37.75;;;;;9.12;70.25;103213.69;5038701;28;45450;-66
2022/01/17 10:42:39;;;;;;;;;52.00;38.25;;;;;9.16;69.78;103227.81;5038288;28;45444;-69
2022/01/17 10:45:08;;;;;;;;;42.00;36.50;;;;;9.18;69.19;103226.00;5033681;28;45474;-67
2022/01/17 10:47:37;;;;;;;;;30.00;27.50;;;;;9.16;69.73;103225.16;5029650;28;45435;-66
2022/01/17 10:50:25;;;;;;;;;40.00;31.75;;;;;9.22;69.65;103201.19;5048728;28;45407;-70
2022/01/17 10:52:53;;;;;;;;;28.50;28.00;;;;;9.19;69.30;103214.50;5049983;28;46143;-65
2022/01/17 10:55:40;;;;;;;;;28.25;25.00;;;;;9.14;69.01;103185.34;5052732;28;45525;-64
2022/01/17 10:58:09;;;;;;;;;40.25;35.75;;;;;9.16;69.17;103172.06;5053456;28;45435;-66
2022/01/17 11:00:45;;;;;;;;;36.50;31.50;;;;;9.12;69.81;103159.72;5054247;28;46005;-64
2022/01/17 11:03:14;;;;;;;;;40.25;36.50;;;;;9.22;69.37;103156.03;5055649;28;46137;-66
2022/01/17 11:05:43;;;;;;;;;42.50;38.25;;;;;9.32;69.70;103157.72;5056106;28;45431;-65
2022/01/17 11:08:09;;;;;;;;;39.75;36.00;;;;;9.38;70.09;103164.78;5056452;28;45494;-68
2022/01/17 11:10:42;;;;;;;;;46.50;40.00;;;;;9.38;68.56;103170.97;5038994;28;45520;-67
2022/01/17 11:13:09;;;;;;;;;44.50;38.50;;;;;9.35;68.95;103167.44;5053075;28;45487;-68
2022/01/17 11:15:37;;;;;;;;;44.75;39.25;;;;;9.38;69.46;103162.13;5060946;28;45569;-70
2022/01/17 11:18:29;;;;;;;;;44.50;38.25;;;;;9.44;68.86;103165.56;5055844;28;45387;-69
2022/01/17 11:20:56;;;;;;;;;42.25;37.00;;;;;9.48;69.12;103170.84;5034407;28;45661;-65
2022/01/17 11:23:22;;;;;;;;;41.00;33.50;;;;;9.48;69.48;103162.88;5055024;28;46410;-67
2022/01/17 11:25:53;;;;;;;;;44.75;32.50;;;;;9.58;68.50;103160.09;5055271;28;45525;-67
2022/01/17 11:28:23;;;;;;;;;38.50;35.00;;;;;9.56;68.80;103158.38;5036242;28;45474;-68
2022/01/17 11:30:53;;;;;;;;;45.25;38.25;;;;;9.65;68.95;103167.13;5037379;28;45443;-65
2022/01/17 11:33:19;;;;;;;;;39.00;36.50;;;;;9.70;68.75;103157.31;5054172;28;45469;-64
2022/01/17 11:35:51;;;;;;;;;54.25;39.25;;;;;9.74;68.54;103151.06;5056235;28;45428;-65
2022/01/17 11:38:20;;;;;;;;;48.00;39.00;;;;;9.70;68.37;103141.38;5056498;28;45357;-68
2022/01/17 11:40:46;;;;;;;;;40.50;33.25;;;;;9.69;68.80;103146.72;5056393;28;45413;-68
2022/01/17 11:43:37;;;;;;;;;45.75;35.00;;;;;9.68;69.07;103147.59;5055246;28;45291;-66